createdAt,value
2022-11-28T00:00:33.778Z,101616.22
2022-11-28T00:03:36.469Z,101610.19
2022-11-28T00:06:45.758Z,101611.38
2022-11-28T00:09:48.808Z,101617.59
2022-11-28T00:12:53.394Z,101615.16
2022-11-28T00:16:03.761Z,101610.16
2022-11-28T00:19:07.006Z,101609.13
2022-11-28T00:22:10.259Z,101597.25
2022-11-28T00:25:14.055Z,101616.03
2022-11-28T00:28:16.522Z,101623.38
2022-11-28T00:31:30.493Z,101621.22
2022-11-28T00:34:33.177Z,101614.66
2022-11-28T00:37:35.673Z,101612.88
2022-11-28T00:40:38.457Z,101618.00
2022-11-28T00:43:42.128Z,101607.38
2022-11-28T00:46:45.202Z,101577.56
2022-11-28T00:49:47.755Z,101605.09
2022-11-28T00:52:50.785Z,101599.63
2022-11-28T00:55:53.976Z,101599.94
2022-11-28T00:58:57.262Z,101596.69
2022-11-28T01:01:59.698Z,101597.91
2022-11-28T01:05:03.064Z,101592.88
2022-11-28T01:08:05.681Z,101592.94
2022-11-28T01:11:13.532Z,101593.09
2022-11-28T01:14:17.009Z,101585.47
2022-11-28T01:17:20.984Z,101571.34
2022-11-28T01:20:23.402Z,101581.00
2022-11-28T01:23:25.944Z,101583.78
2022-11-28T01:26:30.780Z,101579.63
2022-11-28T01:29:33.671Z,101583.78
2022-11-28T01:32:36.156Z,101579.78
2022-11-28T01:35:39.343Z,101576.59
2022-11-28T01:38:43.597Z,101581.97
2022-11-28T01:41:46.650Z,101577.06
2022-11-28T01:44:49.243Z,101578.22
2022-11-28T01:47:52.785Z,101571.97
2022-11-28T01:50:59.112Z,101562.88
2022-11-28T01:54:02.713Z,101557.38
2022-11-28T01:57:07.713Z,101556.00
2022-11-28T02:00:18.714Z,101548.44
2022-11-28T02:03:28.609Z,101551.66
2022-11-28T02:06:31.827Z,101552.00
2022-11-28T02:09:34.270Z,101555.97
2022-11-28T02:13:14.330Z,101553.88
2022-11-28T02:16:29.001Z,101556.22
2022-11-28T02:19:56.389Z,101550.22
2022-11-28T02:23:20.820Z,101554.69
2022-11-28T02:26:42.172Z,101546.47
2022-11-28T02:30:27.505Z,101545.88
2022-11-28T02:33:32.988Z,101544.09
2022-11-28T02:37:04.346Z,101534.44
2022-11-28T02:40:27.760Z,101532.69
2022-11-28T02:44:04.584Z,101521.72
2022-11-28T02:47:11.915Z,101535.69
2022-11-28T02:50:20.279Z,101528.00
2022-11-28T02:53:25.737Z,101525.78
2022-11-28T02:56:28.604Z,101528.91
2022-11-28T02:59:48.341Z,101534.75
2022-11-28T03:02:59.374Z,101526.94
2022-11-28T03:06:07.565Z,101521.94
2022-11-28T03:09:19.412Z,101522.13
2022-11-28T03:12:50.357Z,101518.34
2022-11-28T03:16:07.253Z,101513.53
2022-11-28T03:19:19.174Z,101512.25
2022-11-28T03:22:31.259Z,101522.47
2022-11-28T03:25:40.181Z,101518.09
2022-11-28T03:29:22.508Z,101518.28
2022-11-28T03:32:31.745Z,101515.56
2022-11-28T03:35:38.833Z,101516.22
2022-11-28T03:38:46.357Z,101514.16
2022-11-28T03:41:56.811Z,101507.03
2022-11-28T03:45:07.756Z,101509.91
2022-11-28T03:48:36.484Z,101510.84
2022-11-28T03:51:54.547Z,101505.88
2022-11-28T03:55:02.331Z,101502.31
2022-11-28T03:58:12.786Z,101511.34
2022-11-28T04:01:27.271Z,101515.28
2022-11-28T04:04:36.521Z,101503.00
2022-11-28T04:07:53.329Z,101501.34
2022-11-28T04:11:04.977Z,101499.59
2022-11-28T04:14:35.184Z,101493.72
2022-11-28T04:17:43.508Z,101510.94
2022-11-28T04:20:50.651Z,101508.06
2022-11-28T04:23:56.316Z,101503.69
2022-11-28T04:27:02.175Z,101504.53
2022-11-28T04:30:05.850Z,101493.63
2022-11-28T04:33:10.203Z,101503.91
2022-11-28T04:36:13.109Z,101506.69
2022-11-28T04:39:23.204Z,101501.56
2022-11-28T04:42:40.973Z,101494.94
2022-11-28T04:45:57.653Z,101494.59
2022-11-28T04:49:01.026Z,101494.13
2022-11-28T04:52:23.574Z,101494.25
2022-11-28T04:55:38.213Z,101497.63
2022-11-28T04:58:46.588Z,101502.94
2022-11-28T05:01:50.155Z,101500.06
2022-11-28T05:04:55.870Z,101497.94
2022-11-28T05:07:59.979Z,101492.50
2022-11-28T05:11:02.316Z,101490.94
2022-11-28T05:14:05.276Z,101490.81
2022-11-28T05:17:08.476Z,101491.06
2022-11-28T05:20:11.467Z,101484.00
2022-11-28T05:23:13.965Z,101479.44
2022-11-28T05:26:19.246Z,101481.25
2022-11-28T05:29:21.977Z,101486.50
2022-11-28T05:32:24.990Z,101483.00
2022-11-28T05:35:28.028Z,101478.81
2022-11-28T05:38:30.452Z,101484.59
2022-11-28T05:41:33.617Z,101489.69
2022-11-28T05:44:36.899Z,101474.66
2022-11-28T05:47:40.311Z,101489.53
2022-11-28T05:50:43.274Z,101489.28
2022-11-28T05:53:46.097Z,101487.22
2022-11-28T05:56:48.573Z,101489.13
2022-11-28T05:59:51.970Z,101484.56
2022-11-28T06:02:59.859Z,101486.25
2022-11-28T06:06:03.884Z,101475.56
2022-11-28T06:09:07.636Z,101484.00
2022-11-28T06:12:11.014Z,101485.88
2022-11-28T06:15:14.246Z,101481.31
2022-11-28T06:18:16.662Z,101483.97
2022-11-28T06:21:19.720Z,101477.00
2022-11-28T06:24:24.316Z,101472.47
2022-11-28T06:27:27.762Z,101448.78
2022-11-28T06:30:31.322Z,101479.47
2022-11-28T06:33:34.040Z,101468.78
2022-11-28T06:36:37.454Z,101471.75
2022-11-28T06:39:40.332Z,101474.84
2022-11-28T06:42:43.804Z,101469.00
2022-11-28T06:45:46.474Z,101476.63
2022-11-28T06:48:51.768Z,101474.75
2022-11-28T06:51:57.415Z,101476.13
2022-11-28T06:55:01.320Z,101466.50
2022-11-28T06:58:04.683Z,101470.78
2022-11-28T07:01:19.280Z,101451.00
2022-11-28T07:04:22.186Z,101464.09
2022-11-28T07:07:24.455Z,101468.28
2022-11-28T07:10:28.341Z,101467.34
2022-11-28T07:13:32.195Z,101465.38
2022-11-28T07:16:34.961Z,101470.63
2022-11-28T07:19:38.003Z,101467.91
2022-11-28T07:22:40.835Z,101463.28
2022-11-28T07:25:43.476Z,101467.91
2022-11-28T07:28:47.100Z,101468.53
2022-11-28T07:31:49.667Z,101465.28
2022-11-28T07:34:52.168Z,101460.19
2022-11-28T07:37:54.949Z,101460.81
2022-11-28T07:41:06.331Z,101460.69
2022-11-28T07:44:10.776Z,101463.97
2022-11-28T07:47:13.411Z,101448.19
2022-11-28T07:50:16.190Z,101456.78
2022-11-28T07:53:19.188Z,101463.84
2022-11-28T07:56:25.643Z,101453.44
2022-11-28T07:59:29.403Z,101458.22
2022-11-28T08:02:33.303Z,101436.22
2022-11-28T08:05:36.059Z,101453.03
2022-11-28T08:08:41.314Z,101449.78
2022-11-28T08:11:44.131Z,101455.19
2022-11-28T08:14:46.662Z,101449.97
2022-11-28T08:17:49.474Z,101427.72
2022-11-28T08:20:51.907Z,101449.13
2022-11-28T08:23:56.187Z,101450.97
2022-11-28T08:27:00.769Z,101446.22
2022-11-28T08:30:03.488Z,101446.41
2022-11-28T08:33:06.055Z,101448.31
2022-11-28T08:36:09.428Z,101446.19
2022-11-28T08:39:28.024Z,101445.56
2022-11-28T08:42:30.715Z,101445.09
2022-11-28T08:45:33.359Z,101447.34
2022-11-28T08:48:37.814Z,101450.25
2022-11-28T08:51:41.131Z,101435.50
2022-11-28T08:54:43.794Z,101440.47
2022-11-28T08:57:46.555Z,101420.56
2022-11-28T09:00:49.058Z,101452.50
2022-11-28T09:03:52.327Z,101450.88
2022-11-28T09:06:55.040Z,101448.38
2022-11-28T09:09:58.376Z,101446.25
2022-11-28T09:13:00.776Z,101446.41
2022-11-28T09:16:04.466Z,101440.50
2022-11-28T09:19:09.265Z,101438.59
2022-11-28T09:22:12.016Z,101431.97
2022-11-28T09:25:15.576Z,101430.53
2022-11-28T09:28:18.318Z,101434.72
2022-11-28T09:31:21.526Z,101433.91
2022-11-28T09:34:24.267Z,101428.53
2022-11-28T09:37:29.336Z,101428.97
2022-11-28T09:40:38.102Z,101421.28
2022-11-28T09:43:44.398Z,101417.34
2022-11-28T09:46:49.317Z,101424.38
2022-11-28T09:50:15.971Z,101421.28
2022-11-28T09:54:08.025Z,101419.22
2022-11-28T09:57:19.145Z,101416.94
2022-11-28T10:00:24.975Z,101412.56
2022-11-28T10:03:45.803Z,101413.19
2022-11-28T10:07:02.376Z,101353.56
2022-11-28T10:10:33.841Z,101410.69
2022-11-28T10:14:08.389Z,101401.72
2022-11-28T10:17:27.489Z,101410.91
2022-11-28T10:25:50.176Z,101410.44
2022-11-28T10:28:55.008Z,101404.59
2022-11-28T10:32:00.156Z,101395.34
2022-11-28T10:35:07.083Z,101385.41
2022-11-28T10:38:26.328Z,101380.03
2022-11-28T10:41:38.086Z,101387.72
2022-11-28T10:44:59.113Z,101388.31
2022-11-28T10:48:40.834Z,101382.28
2022-11-28T10:51:58.160Z,101392.03
2022-11-28T10:55:03.254Z,101378.53
2022-11-28T10:58:28.441Z,101383.56
2022-11-28T11:01:36.191Z,101393.28
2022-11-28T11:04:39.745Z,101392.44
2022-11-28T11:08:06.566Z,101385.41
2022-11-28T11:11:26.141Z,101374.00
2022-11-28T11:14:43.873Z,101388.75
2022-11-28T11:17:46.799Z,101385.81
2022-11-28T11:20:49.937Z,101374.41
2022-11-28T11:24:17.063Z,101378.75
2022-11-28T11:27:22.588Z,101382.50
2022-11-28T11:30:39.321Z,101372.72
2022-11-28T11:33:43.346Z,101371.91
2022-11-28T11:36:47.431Z,101370.88
2022-11-28T11:39:51.801Z,101366.28
2022-11-28T11:42:58.435Z,101372.50
2022-11-28T11:46:15.961Z,101366.63
2022-11-28T11:49:39.866Z,101375.81
2022-11-28T11:52:42.752Z,101382.66
2022-11-28T11:55:51.938Z,101377.03
2022-11-28T11:58:55.748Z,101328.47
2022-11-28T12:02:02.782Z,101373.09
2022-11-28T12:05:10.561Z,101372.69
2022-11-28T12:08:28.534Z,101380.19
2022-11-28T12:11:46.734Z,101374.78
2022-11-28T12:14:50.804Z,101371.63
2022-11-28T12:18:23.108Z,101367.09
2022-11-28T12:21:43.938Z,101367.50
2022-11-28T12:25:20.821Z,101359.59
2022-11-28T12:28:53.253Z,101366.47
2022-11-28T12:32:10.209Z,101357.50
2022-11-28T12:35:28.084Z,101358.56
2022-11-28T12:38:53.116Z,101352.09
2022-11-28T12:42:03.547Z,101352.75
2022-11-28T12:45:37.022Z,101359.59
2022-11-28T12:48:53.073Z,101360.25
2022-11-28T12:52:14.497Z,101353.19
2022-11-28T12:55:25.000Z,101342.22
2022-11-28T12:58:32.509Z,101339.88
2022-11-28T13:01:46.474Z,101343.97
2022-11-28T13:05:06.925Z,101338.00
2022-11-28T13:08:22.147Z,101340.47
2022-11-28T13:11:40.327Z,101337.97
2022-11-28T13:14:52.537Z,101336.13
2022-11-28T13:18:17.140Z,101325.97
2022-11-28T13:21:47.192Z,101324.22
2022-11-28T13:25:04.662Z,101321.81
2022-11-28T13:28:20.559Z,101326.81
2022-11-28T13:31:42.964Z,101320.38
2022-11-28T13:34:46.663Z,101318.25
2022-11-28T13:42:59.509Z,101323.91
2022-11-28T13:49:15.234Z,101333.84
2022-11-28T13:52:18.786Z,101330.31
2022-11-28T13:55:41.296Z,101338.44
2022-11-28T13:58:57.084Z,101335.53
2022-11-28T14:02:04.881Z,101337.22
2022-11-28T14:05:26.389Z,101337.84
2022-11-28T14:08:34.987Z,101334.31
2022-11-28T14:11:47.895Z,101322.06
2022-11-28T14:15:06.512Z,101323.34
2022-11-28T14:22:15.130Z,101319.41
2022-11-28T14:25:34.877Z,101315.88
2022-11-28T14:28:40.260Z,101319.41
2022-11-28T14:32:06.504Z,101313.78
2022-11-28T14:35:21.733Z,101321.28
2022-11-28T14:38:33.881Z,101317.94
2022-11-28T14:42:04.260Z,101317.13
2022-11-28T14:45:38.872Z,101315.25
2022-11-28T14:48:42.865Z,101310.47
2022-11-28T14:51:48.787Z,101316.50
2022-11-28T14:54:55.510Z,101315.03
2022-11-28T14:58:01.142Z,101310.28
2022-11-28T15:01:09.958Z,101317.31
2022-11-28T15:04:57.526Z,101324.75
2022-11-28T15:08:31.406Z,101315.66
2022-11-28T15:12:19.274Z,101313.16
2022-11-28T15:15:22.956Z,101312.72
2022-11-28T15:18:26.300Z,101315.66
2022-11-28T15:21:30.986Z,101311.72
2022-11-28T15:24:38.813Z,101326.41
2022-11-28T15:27:41.562Z,101319.81
2022-11-28T15:30:46.715Z,101320.00
2022-11-28T15:33:50.705Z,101318.56
2022-11-28T15:36:55.239Z,101322.47
2022-11-28T15:39:58.269Z,101319.00
2022-11-28T15:43:08.089Z,101315.66
2022-11-28T15:46:20.750Z,101317.13
2022-11-28T15:49:29.950Z,101321.69
2022-11-28T15:52:33.010Z,101319.81
2022-11-28T15:55:35.544Z,101317.31
2022-11-28T15:58:40.391Z,101322.09
2022-11-28T16:01:43.813Z,101316.06
2022-11-28T16:04:46.816Z,101315.25
2022-11-28T16:07:51.823Z,101327.06
2022-11-28T16:10:54.887Z,101319.41
2022-11-28T16:14:01.317Z,101326.66
2022-11-28T16:17:09.873Z,101325.56
2022-11-28T16:20:25.789Z,101320.41
2022-11-28T16:23:31.477Z,101327.28
2022-11-28T16:26:36.766Z,101326.66
2022-11-28T16:29:46.017Z,101331.81
2022-11-28T16:32:48.800Z,101324.75
2022-11-28T16:35:51.465Z,101326.44
2022-11-28T16:39:04.750Z,101324.91
2022-11-28T16:42:17.599Z,101320.16
2022-11-28T16:45:24.822Z,101326.00
2022-11-28T16:48:30.106Z,101322.69
2022-11-28T16:51:35.168Z,101328.25
2022-11-28T16:54:38.002Z,101322.69
2022-11-28T16:57:47.674Z,101315.84
2022-11-28T17:01:02.389Z,101310.19
2022-11-28T17:04:05.960Z,101332.00
2022-11-28T17:07:12.611Z,101326.84
2022-11-28T17:10:15.362Z,101315.63
2022-11-28T17:13:18.715Z,101296.75
2022-11-28T17:16:23.655Z,101318.53
2022-11-28T17:19:29.562Z,101319.59
2022-11-28T17:22:43.663Z,101313.97
2022-11-28T17:25:46.114Z,101308.38
2022-11-28T17:28:48.856Z,101305.06
2022-11-28T17:31:55.285Z,101301.53
2022-11-28T17:34:59.956Z,101311.06
2022-11-28T17:38:02.672Z,101317.94
2022-11-28T17:41:06.058Z,101305.88
2022-11-28T17:44:15.290Z,101317.31
2022-11-28T17:47:19.142Z,101307.44
2022-11-28T17:50:21.647Z,101320.66
2022-11-28T17:53:24.203Z,101316.63
2022-11-28T17:56:27.169Z,101323.69
2022-11-28T17:59:29.841Z,101317.31
2022-11-28T18:02:33.545Z,101305.06
2022-11-28T18:05:44.218Z,101312.31
2022-11-28T18:08:47.759Z,101318.34
2022-11-28T18:11:51.982Z,101322.28
2022-11-28T18:14:54.537Z,101323.09
2022-11-28T18:17:57.508Z,101316.88
2022-11-28T18:21:01.220Z,101311.25
2022-11-28T18:24:06.497Z,101311.47
2022-11-28T18:27:09.459Z,101323.06
2022-11-28T18:30:18.328Z,101312.09
2022-11-28T18:33:21.700Z,101313.78
2022-11-28T18:36:26.720Z,101319.16
2022-11-28T18:39:29.880Z,101321.44
2022-11-28T18:42:34.483Z,101325.81
2022-11-28T18:45:37.377Z,101323.16
2022-11-28T18:48:45.468Z,101318.94
2022-11-28T18:51:49.428Z,101321.03
2022-11-28T18:54:54.490Z,101325.53
2022-11-28T18:57:58.065Z,101324.13
2022-11-28T19:01:00.455Z,101323.09
2022-11-28T19:04:08.290Z,101324.31
2022-11-28T19:07:11.679Z,101318.50
2022-11-28T19:10:14.852Z,101333.22
2022-11-28T19:13:18.425Z,101319.59
2022-11-28T19:16:26.462Z,101323.91
2022-11-28T19:19:29.108Z,101320.00
2022-11-28T19:22:31.894Z,101317.50
2022-11-28T19:25:36.393Z,101313.94
2022-11-28T19:28:40.794Z,101319.78
2022-11-28T19:31:43.818Z,101322.03
2022-11-28T19:34:46.323Z,101319.72
2022-11-28T19:37:49.368Z,101316.63
2022-11-28T19:40:52.407Z,101321.16
2022-11-28T19:43:55.071Z,101315.81
2022-11-28T19:46:57.967Z,101319.09
2022-11-28T19:50:00.607Z,101323.03
2022-11-28T19:53:04.044Z,101313.09
2022-11-28T19:56:15.931Z,101310.66
2022-11-28T19:59:19.450Z,101315.97
2022-11-28T20:02:23.660Z,101315.19
2022-11-28T20:05:26.364Z,101311.22
2022-11-28T20:08:31.339Z,101314.34
2022-11-28T20:11:36.067Z,101304.13
2022-11-28T20:14:40.084Z,101317.66
2022-11-28T20:17:43.412Z,101322.03
2022-11-28T20:20:46.872Z,101320.38
2022-11-28T20:23:52.666Z,101321.41
2022-11-28T20:26:57.491Z,101321.84
2022-11-28T20:30:01.489Z,101313.94
2022-11-28T20:33:04.216Z,101326.41
2022-11-28T20:36:08.266Z,101317.63
2022-11-28T20:39:11.731Z,101326.19
2022-11-28T20:42:14.361Z,101317.44
2022-11-28T20:45:16.943Z,101321.78
2022-11-28T20:48:19.330Z,101328.66
2022-11-28T20:51:25.073Z,101320.88
2022-11-28T20:54:28.193Z,101329.69
2022-11-28T20:57:31.490Z,101325.34
2022-11-28T21:00:36.700Z,101323.31
2022-11-28T21:03:39.581Z,101325.97
2022-11-28T21:06:44.139Z,101307.72
2022-11-28T21:09:47.533Z,101311.38
2022-11-28T21:12:50.735Z,101331.34
2022-11-28T21:15:53.918Z,101333.34
2022-11-28T21:18:57.107Z,101330.47
2022-11-28T21:22:00.299Z,101335.91
2022-11-28T21:25:03.974Z,101323.38
2022-11-28T21:28:09.625Z,101316.66
2022-11-28T21:31:23.939Z,101323.00
2022-11-28T21:34:26.725Z,101326.19
2022-11-28T21:37:29.615Z,101336.03
2022-11-28T21:40:32.671Z,101327.56
2022-11-28T21:43:35.284Z,101333.59
2022-11-28T21:46:39.609Z,101333.59
2022-11-28T21:49:42.767Z,101334.63
2022-11-28T21:52:45.676Z,101328.22
2022-11-28T21:55:48.023Z,101332.13
2022-11-28T21:58:50.602Z,101329.16
2022-11-28T22:01:54.537Z,101329.16
2022-11-28T22:04:57.578Z,101322.56
2022-11-28T22:08:00.657Z,101332.94
2022-11-28T22:11:05.204Z,101321.31
2022-11-28T22:14:08.556Z,101320.00
2022-11-28T22:17:11.812Z,101330.34
2022-11-28T22:20:14.430Z,101326.41
2022-11-28T22:23:20.063Z,101322.47
2022-11-28T22:26:24.763Z,101322.00
2022-11-28T22:29:27.406Z,101322.66
2022-11-28T22:32:30.190Z,101318.34
2022-11-28T22:35:33.121Z,101312.97
2022-11-28T22:38:36.948Z,101297.06
2022-11-28T22:41:40.175Z,101319.34
2022-11-28T22:44:44.712Z,101323.09
2022-11-28T22:47:47.694Z,101328.06
2022-11-28T22:50:50.071Z,101309.03
2022-11-28T22:53:57.064Z,101311.16
2022-11-28T22:57:01.907Z,101309.31
2022-11-28T23:00:07.025Z,101297.53
2022-11-28T23:03:09.441Z,101309.59
2022-11-28T23:06:15.481Z,101311.88
2022-11-28T23:09:18.600Z,101308.03
2022-11-28T23:12:21.172Z,101320.09
2022-11-28T23:15:24.431Z,101312.00
2022-11-28T23:18:27.348Z,101325.13
2022-11-28T23:21:33.045Z,101312.38
2022-11-28T23:24:36.376Z,101296.19
2022-11-28T23:27:39.051Z,101311.44
2022-11-28T23:30:42.973Z,101305.41
2022-11-28T23:33:45.918Z,101312.03
2022-11-28T23:36:50.380Z,101305.97
2022-11-28T23:39:52.885Z,101308.72
2022-11-28T23:42:55.700Z,101307.38
2022-11-28T23:45:58.662Z,101306.53
2022-11-28T23:49:01.251Z,101309.63
2022-11-28T23:52:04.102Z,101313.69
2022-11-28T23:55:07.813Z,101311.63
2022-11-28T23:58:10.594Z,101308.47
